Time;durP1;ratioP1;P1;durP2;ratioP2;P2;SDS_P1;SDS_P2;PMS_P1;PMS_P2;Temp;Humidity;BMP_temperature;BMP_pressure;BME280_temperature;BME280_humidity;BME280_pressure;Samples;Min_cycle;Max_cycle;Signal;HPM_P1;HPM_P2
2022/01/05 00:01:18;;;;;;;122.45;39.95;;;;;;;;;;5017015;28;20060;-86
2022/01/05 00:03:44;;;;;;;123.18;37.85;;;;;;;;;;5034593;28;20040;-86
2022/01/05 00:06:11;;;;;;;121.07;40.53;;;;;;;;;;5017143;28;20486;-86
2022/01/05 00:08:37;;;;;;;128.55;38.97;;;;;;;;;;5016893;28;20046;-86
2022/01/05 00:11:03;;;;;;;114.43;37.17;;;;;;;;;;5034463;28;20038;-86
2022/01/05 00:13:30;;;;;;;109.10;36.78;;;;;;;;;;5016650;28;20472;-86
2022/01/05 00:15:56;;;;;;;117.25;39.85;;;;;;;;;;5034498;28;20503;-86
2022/01/05 00:18:22;;;;;;;115.88;38.65;;;;;;;;;;5016834;28;20041;-86
2022/01/05 00:20:49;;;;;;;134.10;43.15;;;;;;;;;;5017127;28;20488;-86
2022/01/05 00:23:15;;;;;;;116.55;37.80;;;;;;;;;;5015893;28;20484;-86
2022/01/05 00:25:41;;;;;;;104.47;36.03;;;;;;;;;;5016433;28;20029;-86
2022/01/05 00:28:07;;;;;;;127.18;41.83;;;;;;;;;;5016483;28;20484;-86
2022/01/05 00:30:34;;;;;;;110.40;36.28;;;;;;;;;;5016456;28;20033;-86
2022/01/05 00:33:01;;;;;;;106.05;36.58;;;;;;;;;;5016344;28;20049;-87
2022/01/05 00:35:27;;;;;;;144.70;40.42;;;;;;;;;;5016576;28;20396;-86
2022/01/05 00:37:54;;;;;;;160.82;42.90;;;;;;;;;;5016507;28;20092;-86
2022/01/05 00:40:20;;;;;;;132.27;41.67;;;;;;;;;;5016443;28;20041;-86
2022/01/05 00:42:46;;;;;;;122.25;39.45;;;;;;;;;;5016641;28;20033;-86
2022/01/05 00:45:13;;;;;;;95.63;33.72;;;;;;;;;;5034048;28;20057;-86
2022/01/05 00:47:40;;;;;;;89.60;33.63;;;;;;;;;;5016212;28;20033;-86
2022/01/05 00:50:06;;;;;;;81.55;30.83;;;;;;;;;;5016311;28;20056;-86
2022/01/05 00:52:33;;;;;;;60.88;24.00;;;;;;;;;;5016321;28;20057;-85
2022/01/05 00:54:59;;;;;;;65.45;24.08;;;;;;;;;;5016362;28;20048;-86
2022/01/05 00:57:25;;;;;;;43.50;19.00;;;;;;;;;;5016147;28;20041;-86
2022/01/05 00:59:51;;;;;;;51.58;21.48;;;;;;;;;;5016317;28;20037;-86
2022/01/05 01:02:18;;;;;;;48.25;20.48;;;;;;;;;;5016256;28;20483;-87
2022/01/05 01:04:44;;;;;;;52.97;20.50;;;;;;;;;;5016230;28;20037;-86
2022/01/05 01:07:11;;;;;;;48.60;20.40;;;;;;;;;;5016130;28;20061;-86
2022/01/05 01:09:37;;;;;;;57.25;21.35;;;;;;;;;;5016002;28;20037;-85
2022/01/05 01:12:04;;;;;;;43.47;18.65;;;;;;;;;;5016263;28;20172;-86
2022/01/05 01:14:30;;;;;;;62.60;22.98;;;;;;;;;;5016110;28;20392;-86
2022/01/05 01:16:56;;;;;;;44.30;19.52;;;;;;;;;;5016182;28;20045;-86
2022/01/05 01:19:22;;;;;;;49.50;19.88;;;;;;;;;;5016162;28;20029;-86
2022/01/05 01:21:49;;;;;;;35.45;16.33;;;;;;;;;;5015968;28;20053;-87
2022/01/05 01:24:15;;;;;;;34.20;14.57;;;;;;;;;;5033915;28;20100;-86
2022/01/05 01:26:42;;;;;;;35.83;13.98;;;;;;;;;;5015661;28;20036;-86
2022/01/05 01:29:08;;;;;;;34.17;13.95;;;;;;;;;;5015826;28;20029;-87
2022/01/05 01:31:34;;;;;;;30.52;13.20;;;;;;;;;;5015985;28;20044;-86
2022/01/05 01:34:01;;;;;;;44.97;15.85;;;;;;;;;;5034042;28;20049;-86
2022/01/05 01:36:27;;;;;;;32.85;14.50;;;;;;;;;;5019014;28;20025;-86
2022/01/05 01:38:53;;;;;;;39.65;16.70;;;;;;;;;;5019849;28;20040;-86
2022/01/05 01:41:20;;;;;;;57.08;21.30;;;;;;;;;;5019537;28;20069;-86
2022/01/05 01:43:46;;;;;;;54.45;20.02;;;;;;;;;;5019746;28;20029;-86
2022/01/05 01:46:12;;;;;;;54.45;20.75;;;;;;;;;;5037503;28;20065;-85
2022/01/05 01:48:40;;;;;;;62.95;22.63;;;;;;;;;;5037247;28;20038;-86
2022/01/05 01:51:06;;;;;;;68.55;25.13;;;;;;;;;;5037170;28;20571;-87
2022/01/05 01:53:32;;;;;;;65.10;26.33;;;;;;;;;;5019494;28;20041;-87
2022/01/05 01:55:59;;;;;;;75.50;29.33;;;;;;;;;;5019460;28;20030;-86
2022/01/05 01:58:26;;;;;;;94.65;30.95;;;;;;;;;;5019288;28;20037;-86
2022/01/05 02:00:52;;;;;;;74.88;30.20;;;;;;;;;;5019361;28;20032;-86
2022/01/05 02:03:19;;;;;;;87.43;33.50;;;;;;;;;;5019315;28;20029;-86
2022/01/05 02:05:45;;;;;;;88.88;34.28;;;;;;;;;;5019211;28;20040;-86
2022/01/05 02:08:11;;;;;;;84.90;34.88;;;;;;;;;;5019128;28;20040;-86
2022/01/05 02:10:38;;;;;;;99.93;36.42;;;;;;;;;;5036737;28;20427;-86
2022/01/05 02:13:05;;;;;;;96.80;35.65;;;;;;;;;;5019009;28;20029;-86
2022/01/05 02:15:31;;;;;;;103.35;35.60;;;;;;;;;;5019017;28;20026;-86
2022/01/05 02:20:25;;;;;;;96.60;33.28;;;;;;;;;;5036777;28;20033;-86
2022/01/05 02:22:52;;;;;;;127.82;39.58;;;;;;;;;;5018824;28;20034;-86
2022/01/05 02:25:19;;;;;;;184.80;48.70;;;;;;;;;;5018885;28;20029;-86
2022/01/05 02:27:46;;;;;;;211.95;48.38;;;;;;;;;;5036617;28;20041;-86
2022/01/05 02:30:13;;;;;;;156.00;45.75;;;;;;;;;;5018773;28;20033;-86
2022/01/05 02:32:40;;;;;;;217.85;48.90;;;;;;;;;;5018456;28;20053;-86
2022/01/05 02:35:07;;;;;;;141.77;42.95;;;;;;;;;;5018822;28;20035;-85
2022/01/05 02:37:39;;;;;;;232.68;47.63;;;;;;;;;;5018581;28;20045;-85
2022/01/05 02:40:06;;;;;;;116.20;37.08;;;;;;;;;;5018552;28;20029;-85
2022/01/05 02:42:32;;;;;;;127.97;37.10;;;;;;;;;;5018312;28;20107;-86
2022/01/05 02:44:58;;;;;;;144.30;42.65;;;;;;;;;;5018544;28;20034;-86
2022/01/05 02:47:24;;;;;;;122.78;37.55;;;;;;;;;;5017414;28;20042;-85
2022/01/05 02:49:51;;;;;;;165.63;43.35;;;;;;;;;;5018267;28;20033;-86
2022/01/05 02:52:17;;;;;;;439.83;65.78;;;;;;;;;;5017998;28;20033;-85
2022/01/05 02:54:43;;;;;;;129.75;41.28;;;;;;;;;;5017908;28;20362;-85
2022/01/05 02:57:10;;;;;;;105.85;36.92;;;;;;;;;;5035754;28;20033;-86
2022/01/05 02:59:36;;;;;;;175.65;46.25;;;;;;;;;;5017988;28;20034;-86
2022/01/05 03:02:02;;;;;;;152.68;43.58;;;;;;;;;;5018110;28;20049;-85
2022/01/05 03:04:29;;;;;;;112.50;40.88;;;;;;;;;;5018091;28;20034;-86
2022/01/05 03:06:55;;;;;;;106.25;39.58;;;;;;;;;;5017847;28;20064;-86
2022/01/05 03:09:21;;;;;;;166.15;46.20;;;;;;;;;;5035220;28;20384;-86
2022/01/05 03:11:47;;;;;;;114.88;38.58;;;;;;;;;;5018020;28;20087;-86
2022/01/05 03:14:14;;;;;;;108.50;38.30;;;;;;;;;;5017983;28;20026;-86
2022/01/05 03:16:40;;;;;;;105.60;40.05;;;;;;;;;;5035509;28;20112;-86
2022/01/05 03:19:08;;;;;;;122.10;42.78;;;;;;;;;;5017744;28;20446;-86
2022/01/05 03:21:34;;;;;;;103.72;38.45;;;;;;;;;;5017666;28;20056;-85
2022/01/05 03:24:00;;;;;;;109.15;37.97;;;;;;;;;;5017674;28;20041;-85
2022/01/05 03:26:27;;;;;;;111.65;39.25;;;;;;;;;;5035070;28;20030;-85
2022/01/05 03:28:53;;;;;;;131.77;43.83;;;;;;;;;;5017361;28;20484;-85
2022/01/05 03:31:19;;;;;;;117.75;42.58;;;;;;;;;;5035389;28;20041;-86
2022/01/05 03:33:45;;;;;;;103.50;39.60;;;;;;;;;;5017202;28;20049;-86
2022/01/05 03:36:12;;;;;;;121.63;43.90;;;;;;;;;;5017523;28;20036;-85
2022/01/05 03:38:38;;;;;;;120.40;43.25;;;;;;;;;;5017421;28;20095;-85
2022/01/05 03:41:04;;;;;;;131.23;45.50;;;;;;;;;;5017347;28;20080;-85
2022/01/05 03:43:30;;;;;;;121.70;42.17;;;;;;;;;;5017256;28;20029;-86
2022/01/05 03:45:57;;;;;;;136.60;43.28;;;;;;;;;;5017346;28;20030;-86
2022/01/05 03:48:23;;;;;;;112.53;41.83;;;;;;;;;;5017123;28;20042;-85
2022/01/05 03:50:50;;;;;;;95.00;35.60;;;;;;;;;;5017131;28;20030;-86
2022/01/05 03:53:16;;;;;;;139.32;43.72;;;;;;;;;;5017132;28;20038;-85
2022/01/05 03:55:43;;;;;;;113.65;40.83;;;;;;;;;;5017054;28;20036;-85
2022/01/05 03:58:10;;;;;;;164.60;44.42;;;;;;;;;;5016931;28;20484;-85
2022/01/05 04:00:38;;;;;;;157.50;44.88;;;;;;;;;;5034731;28;20033;-85
2022/01/05 04:03:04;;;;;;;134.02;41.35;;;;;;;;;;5034601;28;20030;-85
2022/01/05 04:05:31;;;;;;;169.27;49.75;;;;;;;;;;5034487;28;20120;-85
2022/01/05 04:07:58;;;;;;;123.90;40.25;;;;;;;;;;5034269;28;20112;-85
2022/01/05 04:10:24;;;;;;;121.65;42.38;;;;;;;;;;5016727;28;20026;-86
2022/01/05 04:12:51;;;;;;;125.93;41.15;;;;;;;;;;5016732;28;20025;-86
2022/01/05 04:15:17;;;;;;;172.38;46.63;;;;;;;;;;5016808;28;20029;-85
2022/01/05 04:17:44;;;;;;;195.23;48.60;;;;;;;;;;5016612;28;20065;-86
2022/01/05 04:20:11;;;;;;;134.77;41.72;;;;;;;;;;5016645;28;20069;-85
2022/01/05 04:22:38;;;;;;;115.25;39.65;;;;;;;;;;5016762;28;20045;-85
2022/01/05 04:25:05;;;;;;;101.53;39.35;;;;;;;;;;5034255;28;20060;-85
2022/01/05 04:27:31;;;;;;;133.32;43.58;;;;;;;;;;5016738;28;20042;-85
2022/01/05 04:29:57;;;;;;;100.43;36.88;;;;;;;;;;5016409;28;20384;-86
2022/01/05 04:32:24;;;;;;;102.72;36.75;;;;;;;;;;5016336;28;20054;-86
2022/01/05 04:34:50;;;;;;;109.00;38.30;;;;;;;;;;5016582;28;20030;-86
2022/01/05 04:37:19;;;;;;;100.32;34.67;;;;;;;;;;5034666;28;20042;-86
2022/01/05 04:39:46;;;;;;;109.05;34.83;;;;;;;;;;5016308;28;20130;-85
2022/01/05 04:42:12;;;;;;;88.30;33.42;;;;;;;;;;5016544;28;20492;-86
2022/01/05 04:44:38;;;;;;;73.65;29.83;;;;;;;;;;5016307;28;20029;-86
2022/01/05 04:47:05;;;;;;;88.18;32.00;;;;;;;;;;5016326;28;20055;-85
2022/01/05 04:49:31;;;;;;;76.82;29.98;;;;;;;;;;5016298;28;20087;-85
2022/01/05 04:51:57;;;;;;;71.25;28.90;;;;;;;;;;5016327;28;20029;-85
2022/01/05 04:54:24;;;;;;;77.93;28.92;;;;;;;;;;5016252;28;20029;-85
2022/01/05 04:56:50;;;;;;;103.20;36.28;;;;;;;;;;5016037;28;20519;-85
2022/01/05 04:59:16;;;;;;;93.65;35.90;;;;;;;;;;5016171;28;20095;-85
2022/01/05 05:01:43;;;;;;;116.05;40.95;;;;;;;;;;5016137;28;20032;-85
2022/01/05 05:04:09;;;;;;;129.52;43.03;;;;;;;;;;5016122;28;20076;-86
2022/01/05 05:06:35;;;;;;;90.93;35.95;;;;;;;;;;5016049;28;20396;-85
2022/01/05 05:09:02;;;;;;;98.20;37.38;;;;;;;;;;5015935;28;20102;-86
2022/01/05 05:11:28;;;;;;;123.63;41.85;;;;;;;;;;5019281;28;20036;-86
2022/01/05 05:13:54;;;;;;;98.65;37.20;;;;;;;;;;5020142;28;20484;-85
2022/01/05 05:16:20;;;;;;;109.18;38.95;;;;;;;;;;5020247;28;20115;-85
2022/01/05 05:18:47;;;;;;;102.60;39.25;;;;;;;;;;5020120;28;20037;-85
2022/01/05 05:21:13;;;;;;;101.82;38.78;;;;;;;;;;5019990;28;20033;-85
2022/01/05 05:23:39;;;;;;;108.25;37.08;;;;;;;;;;5037767;28;20056;-85
2022/01/05 05:26:06;;;;;;;121.53;41.13;;;;;;;;;;5019926;28;20095;-86
2022/01/05 05:28:32;;;;;;;124.50;42.17;;;;;;;;;;5019696;28;20507;-85
2022/01/05 05:30:58;;;;;;;112.00;38.10;;;;;;;;;;5019724;28;20037;-85
2022/01/05 05:33:25;;;;;;;163.75;51.25;;;;;;;;;;5019712;28;20049;-86
2022/01/05 05:35:51;;;;;;;179.65;52.55;;;;;;;;;;5019666;28;20037;-86
2022/01/05 05:38:17;;;;;;;131.52;41.85;;;;;;;;;;5019748;28;20041;-86
2022/01/05 05:40:44;;;;;;;122.38;39.75;;;;;;;;;;5019716;28;20040;-86
2022/01/05 05:43:10;;;;;;;98.32;33.47;;;;;;;;;;5037308;28;20114;-86
2022/01/05 05:45:37;;;;;;;105.82;35.67;;;;;;;;;;5037032;28;20060;-86
2022/01/05 05:48:03;;;;;;;120.00;38.30;;;;;;;;;;5019479;28;20037;-86
2022/01/05 05:50:30;;;;;;;91.40;33.72;;;;;;;;;;5019453;28;20041;-86
2022/01/05 05:52:56;;;;;;;130.65;35.67;;;;;;;;;;5019379;28;20040;-86
2022/01/05 05:55:22;;;;;;;112.63;35.13;;;;;;;;;;5019558;28;20026;-86
2022/01/05 05:57:49;;;;;;;91.40;29.60;;;;;;;;;;5019379;28;20361;-86
2022/01/05 06:00:15;;;;;;;83.75;29.88;;;;;;;;;;5019311;28;20049;-86
2022/01/05 06:02:41;;;;;;;79.18;28.92;;;;;;;;;;5019343;28;20030;-86
2022/01/05 06:05:08;;;;;;;93.18;30.23;;;;;;;;;;5019232;28;20029;-86
2022/01/05 06:07:34;;;;;;;72.20;28.27;;;;;;;;;;5019018;28;20045;-86
2022/01/05 06:10:01;;;;;;;77.57;29.42;;;;;;;;;;5018932;28;20087;-85
2022/01/05 06:12:27;;;;;;;69.97;28.70;;;;;;;;;;5019210;28;20034;-85
2022/01/05 06:14:53;;;;;;;73.43;30.05;;;;;;;;;;5019077;28;20044;-86
2022/01/05 06:17:20;;;;;;;69.55;29.17;;;;;;;;;;5018963;28;20389;-86
2022/01/05 06:19:46;;;;;;;62.80;27.88;;;;;;;;;;5018686;28;20064;-86
2022/01/05 06:22:13;;;;;;;64.50;26.50;;;;;;;;;;5017529;28;20025;-85
2022/01/05 06:24:40;;;;;;;64.40;27.48;;;;;;;;;;5018858;28;20056;-85
2022/01/05 06:27:09;;;;;;;59.85;26.58;;;;;;;;;;5036689;28;20030;-86
2022/01/05 06:29:37;;;;;;;59.45;25.17;;;;;;;;;;5018751;28;20025;-85
2022/01/05 06:32:03;;;;;;;73.82;28.85;;;;;;;;;;5018429;28;20061;-86
2022/01/05 06:34:30;;;;;;;70.97;29.75;;;;;;;;;;5018894;28;20036;-86
2022/01/05 06:36:56;;;;;;;67.20;28.88;;;;;;;;;;5018618;28;20033;-86
2022/01/05 06:39:22;;;;;;;67.88;29.73;;;;;;;;;;5018626;28;20033;-86
2022/01/05 06:41:49;;;;;;;65.38;26.48;;;;;;;;;;5018531;28;20087;-85
2022/01/05 06:44:15;;;;;;;57.05;25.70;;;;;;;;;;5018533;28;20129;-85
2022/01/05 06:46:41;;;;;;;61.53;25.90;;;;;;;;;;5018620;28;20033;-86
2022/01/05 06:49:07;;;;;;;60.92;25.85;;;;;;;;;;5018344;28;20037;-86
2022/01/05 06:51:34;;;;;;;66.32;28.95;;;;;;;;;;5018293;28;20060;-86
2022/01/05 06:54:00;;;;;;;59.17;27.67;;;;;;;;;;5018114;28;20084;-86
2022/01/05 06:56:26;;;;;;;59.20;28.13;;;;;;;;;;5018209;28;20113;-85
2022/01/05 06:58:53;;;;;;;58.83;27.73;;;;;;;;;;5018367;28;20041;-86
2022/01/05 07:01:19;;;;;;;62.17;29.73;;;;;;;;;;5036068;28;20025;-85
2022/01/05 07:03:45;;;;;;;56.50;27.50;;;;;;;;;;5018033;28;20030;-86
2022/01/05 07:06:11;;;;;;;55.83;26.95;;;;;;;;;;5035878;28;20085;-86
2022/01/05 07:08:39;;;;;;;47.75;25.65;;;;;;;;;;5035860;28;20506;-86
2022/01/05 07:11:06;;;;;;;57.83;26.45;;;;;;;;;;5017832;28;20447;-86
2022/01/05 07:13:32;;;;;;;63.17;25.88;;;;;;;;;;5018005;28;20033;-86
2022/01/05 07:15:58;;;;;;;53.38;25.60;;;;;;;;;;5017721;28;20071;-86
2022/01/05 07:18:24;;;;;;;59.90;28.38;;;;;;;;;;5017897;28;20120;-85
2022/01/05 07:20:51;;;;;;;62.22;28.10;;;;;;;;;;5035339;28;20427;-86
2022/01/05 07:23:17;;;;;;;61.65;27.73;;;;;;;;;;5017816;28;20055;-86
2022/01/05 07:25:43;;;;;;;51.58;26.42;;;;;;;;;;5017599;28;20033;-85
2022/01/05 07:28:10;;;;;;;48.50;24.33;;;;;;;;;;5017644;28;20038;-86
2022/01/05 07:30:36;;;;;;;48.63;24.77;;;;;;;;;;5017532;28;20120;-86
2022/01/05 07:33:03;;;;;;;42.30;21.80;;;;;;;;;;5017160;28;20050;-86
2022/01/05 07:35:29;;;;;;;50.35;26.38;;;;;;;;;;5017482;28;20026;-86
2022/01/05 07:37:55;;;;;;;56.30;26.00;;;;;;;;;;5017515;28;20034;-86
2022/01/05 07:40:21;;;;;;;46.78;23.42;;;;;;;;;;5017487;28;20168;-86
2022/01/05 07:42:48;;;;;;;50.78;26.27;;;;;;;;;;5017312;28;20033;-86
2022/01/05 07:45:14;;;;;;;51.70;25.80;;;;;;;;;;5017315;28;20162;-86
2022/01/05 07:47:40;;;;;;;49.88;24.75;;;;;;;;;;5017069;28;20435;-86
2022/01/05 07:50:14;;;;;;;51.03;25.63;;;;;;;;;;5016878;28;20033;-86
2022/01/05 07:52:40;;;;;;;47.78;24.80;;;;;;;;;;5017177;28;20038;-85
2022/01/05 07:55:07;;;;;;;46.42;24.48;;;;;;;;;;5034781;28;20091;-86
2022/01/05 07:57:34;;;;;;;46.97;26.23;;;;;;;;;;5017161;28;20038;-86
2022/01/05 08:00:00;;;;;;;52.75;28.65;;;;;;;;;;5017209;28;20056;-85
2022/01/05 08:02:27;;;;;;;52.55;27.13;;;;;;;;;;5034807;28;20041;-86
2022/01/05 08:04:53;;;;;;;51.13;25.77;;;;;;;;;;5017055;28;20037;-85
2022/01/05 08:07:20;;;;;;;52.42;26.88;;;;;;;;;;5034874;28;20480;-86
2022/01/05 08:09:46;;;;;;;58.53;28.73;;;;;;;;;;5016742;28;20120;-86
2022/01/05 08:12:12;;;;;;;55.00;28.08;;;;;;;;;;5016725;28;20496;-86
2022/01/05 08:14:38;;;;;;;57.88;31.02;;;;;;;;;;5034490;28;20033;-86
2022/01/05 08:17:05;;;;;;;59.22;32.00;;;;;;;;;;5016667;28;20032;-86
2022/01/05 08:19:31;;;;;;;63.22;32.40;;;;;;;;;;5016766;28;20060;-86
2022/01/05 08:21:57;;;;;;;58.40;30.77;;;;;;;;;;5017091;28;20473;-86
2022/01/05 08:24:26;;;;;;;63.88;33.20;;;;;;;;;;5016659;28;20061;-86
2022/01/05 08:26:53;;;;;;;66.13;32.83;;;;;;;;;;5034060;28;20102;-86
2022/01/05 08:29:19;;;;;;;58.85;30.05;;;;;;;;;;5034319;28;20049;-86
2022/01/05 08:31:45;;;;;;;55.28;29.35;;;;;;;;;;5016523;28;20082;-86
2022/01/05 08:34:12;;;;;;;57.03;31.40;;;;;;;;;;5033916;28;20060;-86
2022/01/05 08:36:38;;;;;;;61.13;32.33;;;;;;;;;;5016561;28;20029;-86
2022/01/05 08:39:04;;;;;;;62.88;34.75;;;;;;;;;;5016347;28;20034;-86
2022/01/05 08:41:31;;;;;;;65.15;35.35;;;;;;;;;;5016296;28;20061;-86
2022/01/05 08:43:57;;;;;;;71.53;38.33;;;;;;;;;;5033862;28;20029;-87
2022/01/05 08:46:23;;;;;;;67.93;36.13;;;;;;;;;;5015799;28;20040;-86
2022/01/05 08:48:49;;;;;;;66.10;34.80;;;;;;;;;;5016236;28;20048;-86
2022/01/05 08:51:16;;;;;;;70.93;37.20;;;;;;;;;;5016317;28;20384;-86
2022/01/05 08:53:42;;;;;;;73.28;39.17;;;;;;;;;;5016317;28;20026;-86
2022/01/05 08:56:09;;;;;;;70.57;38.25;;;;;;;;;;5016235;28;20479;-86
2022/01/05 08:58:35;;;;;;;87.95;41.50;;;;;;;;;;5016100;28;20071;-86
2022/01/05 09:01:01;;;;;;;68.13;36.25;;;;;;;;;;5016092;28;20030;-86
2022/01/05 09:03:28;;;;;;;71.32;37.03;;;;;;;;;;5016166;28;20552;-85
2022/01/05 09:05:54;;;;;;;70.78;37.67;;;;;;;;;;5016205;28;20037;-85
2022/01/05 09:08:20;;;;;;;72.25;38.10;;;;;;;;;;5033630;28;20384;-85
2022/01/05 09:10:47;;;;;;;71.07;37.45;;;;;;;;;;5016007;28;20029;-86
2022/01/05 09:13:14;;;;;;;72.15;38.38;;;;;;;;;;5033614;28;20372;-85
2022/01/05 09:15:41;;;;;;;78.70;38.40;;;;;;;;;;5015816;28;20026;-86
2022/01/05 09:18:08;;;;;;;72.70;38.65;;;;;;;;;;5033667;28;20112;-86
2022/01/05 09:20:34;;;;;;;76.28;41.10;;;;;;;;;;5015974;28;20144;-86
2022/01/05 09:23:02;;;;;;;83.88;42.65;;;;;;;;;;5015789;28;20033;-86
2022/01/05 09:25:28;;;;;;;80.70;40.00;;;;;;;;;;5015923;28;20424;-86
2022/01/05 09:27:55;;;;;;;85.57;44.03;;;;;;;;;;5015800;28;20045;-86
2022/01/05 09:30:22;;;;;;;90.47;46.90;;;;;;;;;;5015853;28;20030;-86
2022/01/05 09:32:49;;;;;;;76.50;39.75;;;;;;;;;;5015729;28;20144;-86
2022/01/05 09:35:19;;;;;;;78.20;42.38;;;;;;;;;;5015991;28;20061;-86
2022/01/05 09:37:53;;;;;;;86.90;42.75;;;;;;;;;;5015861;28;20065;-85
2022/01/05 09:43:05;;;;;;;83.47;42.83;;;;;;;;;;5033648;28;20036;-85
2022/01/05 09:45:33;;;;;;;86.43;42.15;;;;;;;;;;4999584;28;20045;-85
2022/01/05 09:48:02;;;;;;;92.28;47.22;;;;;;;;;;5016012;28;20053;-86
2022/01/05 09:50:28;;;;;;;94.63;49.22;;;;;;;;;;5015911;28;20053;-86
2022/01/05 09:52:55;;;;;;;95.13;49.33;;;;;;;;;;5015467;28;20079;-85
2022/01/05 09:55:22;;;;;;;100.10;49.70;;;;;;;;;;5015704;28;20476;-86
2022/01/05 09:57:48;;;;;;;109.88;53.50;;;;;;;;;;5019090;28;20071;-86
2022/01/05 10:00:15;;;;;;;109.75;52.80;;;;;;;;;;5019435;28;20029;-85
2022/01/05 10:02:43;;;;;;;104.97;50.15;;;;;;;;;;5019264;28;20498;-85
2022/01/05 10:05:13;;;;;;;110.18;51.17;;;;;;;;;;5019251;28;20036;-86
2022/01/05 10:07:41;;;;;;;97.85;48.22;;;;;;;;;;5019076;28;20132;-85
2022/01/05 10:10:09;;;;;;;93.63;45.72;;;;;;;;;;5036832;28;20357;-86
2022/01/05 10:12:35;;;;;;;96.60;48.47;;;;;;;;;;5019176;28;20565;-86
2022/01/05 10:15:01;;;;;;;102.43;47.85;;;;;;;;;;5019241;28;20029;-86
2022/01/05 10:17:29;;;;;;;96.88;48.97;;;;;;;;;;5019158;28;20416;-86
2022/01/05 10:19:57;;;;;;;94.00;46.65;;;;;;;;;;5018883;28;20525;-86
2022/01/05 10:22:27;;;;;;;93.47;45.30;;;;;;;;;;5019009;28;20037;-86
2022/01/05 10:24:56;;;;;;;82.82;40.63;;;;;;;;;;5018897;28;20034;-86
2022/01/05 10:27:23;;;;;;;90.53;41.15;;;;;;;;;;5018921;28;20041;-86
2022/01/05 10:29:53;;;;;;;120.13;54.42;;;;;;;;;;5018895;28;20384;-86
2022/01/05 10:32:20;;;;;;;123.30;56.63;;;;;;;;;;5018799;28;20072;-86
2022/01/05 10:34:59;;;;;;;123.18;56.60;;;;;;;;;;5036249;28;20073;-86
2022/01/05 10:37:26;;;;;;;124.93;57.60;;;;;;;;;;5036745;28;20036;-87
2022/01/05 10:40:04;;;;;;;113.93;52.95;;;;;;;;;;5018684;28;20034;-87
2022/01/05 10:42:32;;;;;;;131.45;58.25;;;;;;;;;;5036495;28;20040;-86
2022/01/05 10:44:58;;;;;;;128.98;55.38;;;;;;;;;;5018537;28;20076;-86
2022/01/05 10:47:25;;;;;;;115.80;54.35;;;;;;;;;;5018410;28;20061;-87
2022/01/05 10:49:54;;;;;;;118.35;55.47;;;;;;;;;;5035973;28;20033;-86
2022/01/05 10:52:23;;;;;;;113.30;51.10;;;;;;;;;;5018457;28;20116;-86
2022/01/05 10:54:50;;;;;;;121.75;53.30;;;;;;;;;;5018320;28;20357;-86
2022/01/05 10:57:16;;;;;;;123.95;52.70;;;;;;;;;;5018444;28;20034;-86
2022/01/05 10:59:47;;;;;;;132.25;58.08;;;;;;;;;;5018343;28;20033;-86
2022/01/05 11:02:22;;;;;;;133.65;57.80;;;;;;;;;;5018414;28;20025;-85
2022/01/05 11:04:49;;;;;;;143.57;59.92;;;;;;;;;;5018229;28;20026;-86
2022/01/05 11:07:28;;;;;;;127.43;52.70;;;;;;;;;;5035620;28;20060;-86
2022/01/05 11:09:55;;;;;;;115.40;51.55;;;;;;;;;;5017708;28;20395;-86
2022/01/05 11:12:30;;;;;;;109.13;47.30;;;;;;;;;;5018204;28;20025;-86
2022/01/05 11:15:16;;;;;;;100.80;45.92;;;;;;;;;;5018279;28;20091;-86
2022/01/05 11:17:44;;;;;;;104.97;44.65;;;;;;;;;;5035918;28;20029;-86
2022/01/05 11:20:11;;;;;;;101.32;43.60;;;;;;;;;;5018172;28;20483;-86
2022/01/05 11:22:37;;;;;;;92.40;40.85;;;;;;;;;;5017847;28;20172;-86
2022/01/05 11:25:03;;;;;;;105.13;44.40;;;;;;;;;;5017772;28;20061;-87
2022/01/05 11:27:30;;;;;;;102.75;44.63;;;;;;;;;;5035363;28;20193;-87
2022/01/05 11:29:57;;;;;;;107.25;43.95;;;;;;;;;;5017911;28;20040;-86
2022/01/05 11:32:27;;;;;;;101.15;43.50;;;;;;;;;;5017776;28;20045;-86
2022/01/05 11:34:53;;;;;;;101.40;40.90;;;;;;;;;;5017911;28;20033;-86
2022/01/05 11:37:20;;;;;;;103.55;43.72;;;;;;;;;;5017674;28;20447;-86
2022/01/05 11:39:49;;;;;;;100.22;42.53;;;;;;;;;;5017741;28;20052;-86
2022/01/05 11:42:18;;;;;;;95.70;41.88;;;;;;;;;;5017522;28;20026;-86
2022/01/05 11:44:46;;;;;;;90.65;40.50;;;;;;;;;;5017523;28;20113;-87
2022/01/05 11:47:33;;;;;;;90.13;39.63;;;;;;;;;;5017406;28;20029;-86
2022/01/05 11:50:14;;;;;;;106.05;46.67;;;;;;;;;;5017426;28;20113;-86
2022/01/05 11:52:56;;;;;;;106.13;47.10;;;;;;;;;;5017317;28;20076;-86
2022/01/05 11:55:23;;;;;;;110.72;50.00;;;;;;;;;;5017350;28;20026;-86
2022/01/05 11:58:08;;;;;;;118.70;52.38;;;;;;;;;;5017253;28;20033;-86
2022/01/05 12:00:34;;;;;;;118.40;51.15;;;;;;;;;;5035095;28;20038;-86
2022/01/05 12:03:01;;;;;;;121.05;54.38;;;;;;;;;;5017254;28;20025;-86
2022/01/05 12:05:27;;;;;;;126.07;50.58;;;;;;;;;;5017190;28;20124;-86
2022/01/05 12:07:55;;;;;;;103.50;43.53;;;;;;;;;;5017128;28;20050;-86
2022/01/05 12:10:22;;;;;;;95.20;41.33;;;;;;;;;;5034964;28;20041;-86
2022/01/05 12:12:57;;;;;;;102.97;41.22;;;;;;;;;;5016876;28;20033;-87
2022/01/05 12:15:43;;;;;;;95.22;37.22;;;;;;;;;;5016932;28;20380;-86
2022/01/05 12:18:09;;;;;;;89.07;37.60;;;;;;;;;;5016841;28;20041;-86
2022/01/05 12:20:36;;;;;;;104.70;41.20;;;;;;;;;;5017007;28;20530;-86
2022/01/05 12:23:24;;;;;;;91.38;38.38;;;;;;;;;;5016832;28;20451;-86
2022/01/05 12:26:04;;;;;;;84.35;35.65;;;;;;;;;;5016871;28;20034;-86
2022/01/05 12:28:36;;;;;;;96.38;38.90;;;;;;;;;;5034395;28;20036;-86
2022/01/05 12:31:03;;;;;;;95.90;40.85;;;;;;;;;;5026899;28;20025;-86
2022/01/05 12:33:42;;;;;;;107.55;42.58;;;;;;;;;;5016596;28;20053;-86
2022/01/05 12:36:08;;;;;;;123.07;48.83;;;;;;;;;;5016796;28;20032;-86
2022/01/05 12:38:54;;;;;;;126.65;50.10;;;;;;;;;;5034344;28;20040;-86
2022/01/05 12:41:28;;;;;;;141.57;61.28;;;;;;;;;;5016618;28;20029;-86
2022/01/05 12:43:56;;;;;;;149.25;65.00;;;;;;;;;;5016531;28;20033;-87
2022/01/05 12:46:36;;;;;;;122.18;52.00;;;;;;;;;;5017090;28;20099;-86
2022/01/05 12:49:04;;;;;;;139.23;57.38;;;;;;;;;;5016419;28;20042;-86
2022/01/05 12:51:39;;;;;;;144.77;59.58;;;;;;;;;;5016457;28;20100;-86
2022/01/05 12:54:18;;;;;;;144.85;62.95;;;;;;;;;;5016410;28;20025;-87
2022/01/05 12:56:55;;;;;;;142.40;57.38;;;;;;;;;;5016497;28;20491;-87
2022/01/05 12:59:30;;;;;;;138.32;57.72;;;;;;;;;;5034259;28;20030;-86
2022/01/05 13:02:04;;;;;;;135.43;60.35;;;;;;;;;;5016412;28;20045;-86
2022/01/05 13:04:31;;;;;;;112.68;48.83;;;;;;;;;;5033912;28;20503;-87
2022/01/05 13:06:59;;;;;;;102.40;42.83;;;;;;;;;;5016394;28;20435;-86
2022/01/05 13:09:42;;;;;;;106.03;42.22;;;;;;;;;;5016200;28;20125;-86
2022/01/05 13:12:11;;;;;;;121.63;49.88;;;;;;;;;;5016515;28;20116;-87
2022/01/05 13:14:39;;;;;;;106.57;42.67;;;;;;;;;;5016375;28;20386;-86
2022/01/05 13:17:16;;;;;;;97.95;39.92;;;;;;;;;;5016202;28;20029;-87
2022/01/05 13:19:47;;;;;;;92.95;38.60;;;;;;;;;;5016289;28;20030;-86
2022/01/05 13:22:21;;;;;;;98.47;39.80;;;;;;;;;;5016177;28;20477;-87
2022/01/05 13:24:52;;;;;;;105.32;40.92;;;;;;;;;;5016326;28;20041;-87
2022/01/05 13:27:23;;;;;;;104.95;42.08;;;;;;;;;;5016050;28;20026;-87
2022/01/05 13:29:50;;;;;;;109.90;44.75;;;;;;;;;;5016209;28;20096;-87
2022/01/05 13:32:18;;;;;;;109.13;45.08;;;;;;;;;;5018893;28;20103;-88
2022/01/05 13:34:46;;;;;;;118.47;47.17;;;;;;;;;;5020304;28;20053;-87
2022/01/05 13:37:14;;;;;;;107.38;43.63;;;;;;;;;;5038042;28;20071;-87
2022/01/05 13:39:44;;;;;;;113.03;42.40;;;;;;;;;;5020172;28;20088;-87
2022/01/05 13:42:12;;;;;;;109.22;42.58;;;;;;;;;;5019957;28;20116;-87
2022/01/05 13:44:38;;;;;;;111.80;42.45;;;;;;;;;;5020003;28;20048;-87
2022/01/05 13:47:06;;;;;;;94.53;38.72;;;;;;;;;;5019970;28;20033;-86
2022/01/05 13:49:32;;;;;;;101.22;39.65;;;;;;;;;;5037442;28;20040;-87
2022/01/05 13:52:03;;;;;;;117.10;43.83;;;;;;;;;;5019832;28;20045;-87
2022/01/05 13:54:29;;;;;;;120.70;45.13;;;;;;;;;;5003522;28;20037;-87
2022/01/05 13:56:55;;;;;;;97.78;41.55;;;;;;;;;;5019773;28;20474;-87
2022/01/05 13:59:22;;;;;;;125.72;48.05;;;;;;;;;;5019642;28;20045;-87
2022/01/05 14:01:58;;;;;;;120.25;47.75;;;;;;;;;;5019482;28;20029;-87
2022/01/05 14:04:24;;;;;;;133.10;50.05;;;;;;;;;;5019578;28;20037;-87
2022/01/05 14:07:00;;;;;;;130.20;52.00;;;;;;;;;;5019361;28;20542;-86
2022/01/05 14:09:30;;;;;;;136.27;52.10;;;;;;;;;;5018905;28;20041;-87
2022/01/05 14:11:57;;;;;;;146.38;51.55;;;;;;;;;;5037133;28;20060;-86
2022/01/05 14:14:24;;;;;;;139.10;51.90;;;;;;;;;;5019838;28;20029;-87
2022/01/05 14:16:51;;;;;;;129.52;47.13;;;;;;;;;;5019234;28;20033;-87
2022/01/05 14:19:27;;;;;;;120.55;48.08;;;;;;;;;;5019187;28;20546;-87